sensor_id;sensor_type;location;lat;lon;timestamp;temperature;humidity
1225;DHT22;602;48.000;7.840;2023-03-09T00:00:50;13.60;99.90
1225;DHT22;602;48.000;7.840;2023-03-09T00:03:19;13.50;99.90
1225;DHT22;602;48.000;7.840;2023-03-09T00:05:53;13.50;99.90
1225;DHT22;602;48.000;7.840;2023-03-09T00:08:20;13.50;99.90
1225;DHT22;602;48.000;7.840;2023-03-09T00:10:47;13.40;99.90
1225;DHT22;602;48.000;7.840;2023-03-09T00:13:17;13.30;99.90
1225;DHT22;602;48.000;7.840;2023-03-09T00:15:44;13.30;99.90
1225;DHT22;602;48.000;7.840;2023-03-09T00:18:17;13.30;99.90
1225;DHT22;602;48.000;7.840;2023-03-09T00:20:44;13.20;99.90
1225;DHT22;602;48.000;7.840;2023-03-09T00:23:12;13.20;99.90
1225;DHT22;602;48.000;7.840;2023-03-09T00:25:39;13.20;99.90
1225;DHT22;602;48.000;7.840;2023-03-09T00:28:06;13.10;99.90
1225;DHT22;602;48.000;7.840;2023-03-09T00:30:33;13.00;99.90
1225;DHT22;602;48.000;7.840;2023-03-09T00:33:01;13.00;99.90
1225;DHT22;602;48.000;7.840;2023-03-09T00:35:29;13.00;99.90
1225;DHT22;602;48.000;7.840;2023-03-09T00:37:56;13.10;99.90
1225;DHT22;602;48.000;7.840;2023-03-09T00:40:23;13.10;99.90
1225;DHT22;602;48.000;7.840;2023-03-09T00:42:50;13.10;99.90
1225;DHT22;602;48.000;7.840;2023-03-09T00:45:17;13.20;99.90
1225;DHT22;602;48.000;7.840;2023-03-09T00:47:43;13.20;99.90
1225;DHT22;602;48.000;7.840;2023-03-09T00:50:11;13.20;99.90
1225;DHT22;602;48.000;7.840;2023-03-09T00:52:39;13.20;99.90
1225;DHT22;602;48.000;7.840;2023-03-09T00:55:06;13.30;99.90
1225;DHT22;602;48.000;7.840;2023-03-09T00:57:33;13.30;99.90
1225;DHT22;602;48.000;7.840;2023-03-09T01:00:01;13.40;99.90
1225;DHT22;602;48.000;7.840;2023-03-09T01:02:29;13.40;99.90
1225;DHT22;602;48.000;7.840;2023-03-09T01:04:57;13.40;99.90
1225;DHT22;602;48.000;7.840;2023-03-09T01:07:24;13.40;99.90
1225;DHT22;602;48.000;7.840;2023-03-09T01:09:52;13.40;99.90
1225;DHT22;602;48.000;7.840;2023-03-09T01:12:19;13.50;99.90
1225;DHT22;602;48.000;7.840;2023-03-09T01:14:46;13.50;99.90
1225;DHT22;602;48.000;7.840;2023-03-09T01:17:14;13.50;99.90
1225;DHT22;602;48.000;7.840;2023-03-09T01:19:41;13.50;99.90
1225;DHT22;602;48.000;7.840;2023-03-09T01:22:07;13.40;99.90
1225;DHT22;602;48.000;7.840;2023-03-09T01:24:34;13.40;99.90
1225;DHT22;602;48.000;7.840;2023-03-09T01:27:03;13.40;99.90
1225;DHT22;602;48.000;7.840;2023-03-09T01:29:30;13.30;99.90
1225;DHT22;602;48.000;7.840;2023-03-09T01:31:57;13.40;99.90
1225;DHT22;602;48.000;7.840;2023-03-09T01:34:23;13.40;99.90
1225;DHT22;602;48.000;7.840;2023-03-09T01:36:50;13.40;99.90
1225;DHT22;602;48.000;7.840;2023-03-09T01:39:17;13.30;99.90
1225;DHT22;602;48.000;7.840;2023-03-09T01:41:44;13.30;99.90
1225;DHT22;602;48.000;7.840;2023-03-09T01:44:13;13.20;99.90
1225;DHT22;602;48.000;7.840;2023-03-09T01:46:47;13.30;99.90
1225;DHT22;602;48.000;7.840;2023-03-09T01:49:24;13.30;99.90
1225;DHT22;602;48.000;7.840;2023-03-09T01:51:56;13.30;99.90
1225;DHT22;602;48.000;7.840;2023-03-09T01:54:26;13.30;99.90
1225;DHT22;602;48.000;7.840;2023-03-09T01:56:58;13.30;99.90
1225;DHT22;602;48.000;7.840;2023-03-09T01:59:30;13.30;99.90
1225;DHT22;602;48.000;7.840;2023-03-09T02:01:59;13.30;99.90
1225;DHT22;602;48.000;7.840;2023-03-09T02:04:32;13.30;99.90
1225;DHT22;602;48.000;7.840;2023-03-09T02:07:01;13.30;99.90
1225;DHT22;602;48.000;7.840;2023-03-09T02:09:33;13.40;99.90
1225;DHT22;602;48.000;7.840;2023-03-09T02:12:05;13.40;99.90
1225;DHT22;602;48.000;7.840;2023-03-09T02:14:34;13.40;99.90
1225;DHT22;602;48.000;7.840;2023-03-09T02:17:01;13.50;99.90
1225;DHT22;602;48.000;7.840;2023-03-09T02:19:39;13.40;99.90
1225;DHT22;602;48.000;7.840;2023-03-09T02:22:07;13.40;99.90
1225;DHT22;602;48.000;7.840;2023-03-09T02:24:42;13.40;99.90
1225;DHT22;602;48.000;7.840;2023-03-09T02:27:15;13.30;99.90
1225;DHT22;602;48.000;7.840;2023-03-09T02:29:42;13.20;99.90
1225;DHT22;602;48.000;7.840;2023-03-09T02:32:09;13.10;99.90
1225;DHT22;602;48.000;7.840;2023-03-09T02:34:36;13.00;99.90
1225;DHT22;602;48.000;7.840;2023-03-09T02:37:03;13.00;99.90
1225;DHT22;602;48.000;7.840;2023-03-09T02:39:36;12.90;99.90
1225;DHT22;602;48.000;7.840;2023-03-09T02:42:05;12.70;99.90
1225;DHT22;602;48.000;7.840;2023-03-09T02:44:34;12.60;99.90
1225;DHT22;602;48.000;7.840;2023-03-09T02:47:01;12.60;99.90
1225;DHT22;602;48.000;7.840;2023-03-09T02:49:28;12.30;99.90
1225;DHT22;602;48.000;7.840;2023-03-09T02:51:55;12.20;99.90
1225;DHT22;602;48.000;7.840;2023-03-09T02:54:22;12.10;99.90
1225;DHT22;602;48.000;7.840;2023-03-09T02:56:49;12.00;99.90
1225;DHT22;602;48.000;7.840;2023-03-09T02:59:16;11.80;99.90
1225;DHT22;602;48.000;7.840;2023-03-09T03:01:44;11.60;99.90
1225;DHT22;602;48.000;7.840;2023-03-09T03:04:11;11.60;99.90
1225;DHT22;602;48.000;7.840;2023-03-09T03:06:38;11.50;99.90
1225;DHT22;602;48.000;7.840;2023-03-09T03:09:05;11.40;99.90
1225;DHT22;602;48.000;7.840;2023-03-09T03:11:32;11.20;99.90
1225;DHT22;602;48.000;7.840;2023-03-09T03:13:59;11.20;99.90
1225;DHT22;602;48.000;7.840;2023-03-09T03:16:26;11.10;99.90
1225;DHT22;602;48.000;7.840;2023-03-09T03:18:54;11.10;99.90
1225;DHT22;602;48.000;7.840;2023-03-09T03:21:21;11.20;99.90
1225;DHT22;602;48.000;7.840;2023-03-09T03:23:47;11.10;99.90
1225;DHT22;602;48.000;7.840;2023-03-09T03:26:14;11.10;99.90
1225;DHT22;602;48.000;7.840;2023-03-09T03:28:41;11.10;99.90
1225;DHT22;602;48.000;7.840;2023-03-09T03:31:08;11.10;99.90
1225;DHT22;602;48.000;7.840;2023-03-09T03:33:36;11.10;99.90
1225;DHT22;602;48.000;7.840;2023-03-09T03:36:05;11.10;99.90
1225;DHT22;602;48.000;7.840;2023-03-09T03:38:31;11.10;99.90
1225;DHT22;602;48.000;7.840;2023-03-09T03:40:58;11.20;99.90
1225;DHT22;602;48.000;7.840;2023-03-09T03:43:25;11.10;99.90
1225;DHT22;602;48.000;7.840;2023-03-09T03:45:52;11.10;99.90
1225;DHT22;602;48.000;7.840;2023-03-09T03:48:19;11.10;99.90
1225;DHT22;602;48.000;7.840;2023-03-09T03:50:46;11.20;99.90
1225;DHT22;602;48.000;7.840;2023-03-09T03:53:14;11.20;99.90
1225;DHT22;602;48.000;7.840;2023-03-09T03:55:41;11.20;99.90
1225;DHT22;602;48.000;7.840;2023-03-09T03:58:07;11.20;99.90
1225;DHT22;602;48.000;7.840;2023-03-09T04:00:34;11.20;99.90
1225;DHT22;602;48.000;7.840;2023-03-09T04:03:01;11.30;99.90
1225;DHT22;602;48.000;7.840;2023-03-09T04:05:28;11.30;99.90
1225;DHT22;602;48.000;7.840;2023-03-09T04:07:55;11.30;99.90
1225;DHT22;602;48.000;7.840;2023-03-09T04:10:23;11.30;99.90
1225;DHT22;602;48.000;7.840;2023-03-09T04:12:50;11.30;99.90
1225;DHT22;602;48.000;7.840;2023-03-09T04:15:17;11.40;99.90
1225;DHT22;602;48.000;7.840;2023-03-09T04:17:44;11.40;99.90
1225;DHT22;602;48.000;7.840;2023-03-09T04:20:13;11.30;99.90
1225;DHT22;602;48.000;7.840;2023-03-09T04:22:40;11.30;99.90
1225;DHT22;602;48.000;7.840;2023-03-09T04:25:08;11.30;99.90
1225;DHT22;602;48.000;7.840;2023-03-09T04:27:36;11.30;99.90
1225;DHT22;602;48.000;7.840;2023-03-09T04:30:04;11.30;99.90
1225;DHT22;602;48.000;7.840;2023-03-09T04:32:31;11.30;99.90
1225;DHT22;602;48.000;7.840;2023-03-09T04:34:57;11.30;99.90
1225;DHT22;602;48.000;7.840;2023-03-09T04:37:24;11.40;99.90
1225;DHT22;602;48.000;7.840;2023-03-09T04:39:51;11.30;99.90
1225;DHT22;602;48.000;7.840;2023-03-09T04:42:18;11.40;99.90
1225;DHT22;602;48.000;7.840;2023-03-09T04:44:46;11.40;99.90
1225;DHT22;602;48.000;7.840;2023-03-09T04:47:13;11.40;99.90
1225;DHT22;602;48.000;7.840;2023-03-09T04:49:40;11.40;99.90
1225;DHT22;602;48.000;7.840;2023-03-09T04:52:08;11.30;99.90
1225;DHT22;602;48.000;7.840;2023-03-09T04:54:34;11.20;99.90
1225;DHT22;602;48.000;7.840;2023-03-09T04:57:01;11.20;99.90
1225;DHT22;602;48.000;7.840;2023-03-09T04:59:28;11.10;99.90
1225;DHT22;602;48.000;7.840;2023-03-09T05:01:56;11.10;99.90
1225;DHT22;602;48.000;7.840;2023-03-09T05:04:23;11.00;99.90
1225;DHT22;602;48.000;7.840;2023-03-09T05:06:50;11.00;99.90
1225;DHT22;602;48.000;7.840;2023-03-09T05:09:17;11.00;99.90
1225;DHT22;602;48.000;7.840;2023-03-09T05:11:44;11.00;99.90
1225;DHT22;602;48.000;7.840;2023-03-09T05:14:11;11.00;99.90
1225;DHT22;602;48.000;7.840;2023-03-09T05:16:38;11.00;99.90
1225;DHT22;602;48.000;7.840;2023-03-09T05:19:08;11.00;99.90
1225;DHT22;602;48.000;7.840;2023-03-09T05:21:35;11.10;99.90
1225;DHT22;602;48.000;7.840;2023-03-09T05:24:02;11.10;99.90
1225;DHT22;602;48.000;7.840;2023-03-09T05:26:29;11.10;99.90
1225;DHT22;602;48.000;7.840;2023-03-09T05:28:56;11.10;99.90
1225;DHT22;602;48.000;7.840;2023-03-09T05:31:23;11.10;99.90
1225;DHT22;602;48.000;7.840;2023-03-09T05:33:52;11.20;99.90
1225;DHT22;602;48.000;7.840;2023-03-09T05:36:22;11.20;99.90
1225;DHT22;602;48.000;7.840;2023-03-09T05:38:50;11.10;99.90
1225;DHT22;602;48.000;7.840;2023-03-09T05:41:18;11.20;99.90
1225;DHT22;602;48.000;7.840;2023-03-09T05:43:45;11.10;99.90
1225;DHT22;602;48.000;7.840;2023-03-09T05:46:14;11.20;99.90
1225;DHT22;602;48.000;7.840;2023-03-09T05:48:41;11.20;99.90
1225;DHT22;602;48.000;7.840;2023-03-09T05:51:09;11.20;99.90
1225;DHT22;602;48.000;7.840;2023-03-09T05:53:38;11.20;99.90
1225;DHT22;602;48.000;7.840;2023-03-09T05:56:05;11.30;99.90
1225;DHT22;602;48.000;7.840;2023-03-09T05:58:33;11.30;99.90
1225;DHT22;602;48.000;7.840;2023-03-09T06:01:00;11.30;99.90
1225;DHT22;602;48.000;7.840;2023-03-09T06:03:26;11.30;99.90
1225;DHT22;602;48.000;7.840;2023-03-09T06:06:00;11.40;99.90
1225;DHT22;602;48.000;7.840;2023-03-09T06:08:28;11.30;99.90
1225;DHT22;602;48.000;7.840;2023-03-09T06:10:58;11.30;99.90
1225;DHT22;602;48.000;7.840;2023-03-09T06:13:25;11.30;99.90
1225;DHT22;602;48.000;7.840;2023-03-09T06:15:52;11.40;99.90
1225;DHT22;602;48.000;7.840;2023-03-09T06:18:19;11.40;99.90
1225;DHT22;602;48.000;7.840;2023-03-09T06:20:46;11.40;99.90
1225;DHT22;602;48.000;7.840;2023-03-09T06:23:13;11.40;99.90
1225;DHT22;602;48.000;7.840;2023-03-09T06:25:40;11.40;99.90
1225;DHT22;602;48.000;7.840;2023-03-09T06:28:09;11.40;99.90
1225;DHT22;602;48.000;7.840;2023-03-09T06:30:38;11.40;99.90
1225;DHT22;602;48.000;7.840;2023-03-09T06:33:05;11.40;99.90
1225;DHT22;602;48.000;7.840;2023-03-09T06:35:33;11.40;99.90
1225;DHT22;602;48.000;7.840;2023-03-09T06:38:00;11.50;99.90
1225;DHT22;602;48.000;7.840;2023-03-09T06:40:27;11.40;99.90
1225;DHT22;602;48.000;7.840;2023-03-09T06:42:54;11.40;99.90
1225;DHT22;602;48.000;7.840;2023-03-09T06:45:22;11.40;99.90
1225;DHT22;602;48.000;7.840;2023-03-09T06:47:52;11.40;99.90
1225;DHT22;602;48.000;7.840;2023-03-09T06:50:19;11.50;99.90
1225;DHT22;602;48.000;7.840;2023-03-09T06:52:46;11.50;99.90
1225;DHT22;602;48.000;7.840;2023-03-09T06:55:13;11.60;99.90
1225;DHT22;602;48.000;7.840;2023-03-09T06:57:40;11.60;99.90
1225;DHT22;602;48.000;7.840;2023-03-09T07:00:08;11.60;99.90
1225;DHT22;602;48.000;7.840;2023-03-09T07:02:38;11.60;99.90
1225;DHT22;602;48.000;7.840;2023-03-09T07:05:06;11.70;99.90
1225;DHT22;602;48.000;7.840;2023-03-09T07:07:33;11.60;99.90
1225;DHT22;602;48.000;7.840;2023-03-09T07:10:00;11.60;99.90
1225;DHT22;602;48.000;7.840;2023-03-09T07:12:26;11.60;99.90
1225;DHT22;602;48.000;7.840;2023-03-09T07:14:53;11.50;99.90
1225;DHT22;602;48.000;7.840;2023-03-09T07:17:20;11.50;99.90
1225;DHT22;602;48.000;7.840;2023-03-09T07:19:49;11.50;99.90
1225;DHT22;602;48.000;7.840;2023-03-09T07:22:17;11.50;99.90
1225;DHT22;602;48.000;7.840;2023-03-09T07:24:44;11.50;99.90
1225;DHT22;602;48.000;7.840;2023-03-09T07:27:11;11.50;99.90
1225;DHT22;602;48.000;7.840;2023-03-09T07:29:38;11.50;99.90
1225;DHT22;602;48.000;7.840;2023-03-09T07:32:06;11.50;99.90
1225;DHT22;602;48.000;7.840;2023-03-09T07:34:33;11.60;99.90
1225;DHT22;602;48.000;7.840;2023-03-09T07:37:01;11.60;99.90
1225;DHT22;602;48.000;7.840;2023-03-09T07:39:28;11.60;99.90
1225;DHT22;602;48.000;7.840;2023-03-09T07:41:55;11.70;99.90
1225;DHT22;602;48.000;7.840;2023-03-09T07:44:22;11.80;99.90
1225;DHT22;602;48.000;7.840;2023-03-09T07:46:49;11.80;99.90
1225;DHT22;602;48.000;7.840;2023-03-09T07:50:06;11.80;99.90
1225;DHT22;602;48.000;7.840;2023-03-09T08:00:03;11.90;99.90
1225;DHT22;602;48.000;7.840;2023-03-09T08:03:27;12.00;99.90
1225;DHT22;602;48.000;7.840;2023-03-09T08:05:54;12.10;99.90
1225;DHT22;602;48.000;7.840;2023-03-09T08:08:21;12.00;99.90
1225;DHT22;602;48.000;7.840;2023-03-09T08:10:48;12.00;99.90
1225;DHT22;602;48.000;7.840;2023-03-09T08:13:15;12.10;99.90
1225;DHT22;602;48.000;7.840;2023-03-09T08:23:16;12.00;99.90
1225;DHT22;602;48.000;7.840;2023-03-09T08:33:11;12.00;99.90
1225;DHT22;602;48.000;7.840;2023-03-09T08:39:10;12.20;99.90
1225;DHT22;602;48.000;7.840;2023-03-09T08:45:21;12.20;99.90
1225;DHT22;602;48.000;7.840;2023-03-09T08:48:14;12.30;99.90
1225;DHT22;602;48.000;7.840;2023-03-09T08:51:30;12.50;99.90
1225;DHT22;602;48.000;7.840;2023-03-09T09:04:55;13.20;99.90
1225;DHT22;602;48.000;7.840;2023-03-09T09:11:27;13.10;99.90
1225;DHT22;602;48.000;7.840;2023-03-09T09:14:38;13.10;99.90
1225;DHT22;602;48.000;7.840;2023-03-09T10:19:24;14.10;99.90
1225;DHT22;602;48.000;7.840;2023-03-09T10:32:51;14.40;99.90
1225;DHT22;602;48.000;7.840;2023-03-09T10:46:11;14.40;99.90
1225;DHT22;602;48.000;7.840;2023-03-09T10:49:17;14.50;99.90
1225;DHT22;602;48.000;7.840;2023-03-09T10:55:58;14.30;99.90
1225;DHT22;602;48.000;7.840;2023-03-09T11:09:58;14.40;99.90
1225;DHT22;602;48.000;7.840;2023-03-09T11:13:09;14.60;99.90
1225;DHT22;602;48.000;7.840;2023-03-09T11:16:20;14.90;99.90
1225;DHT22;602;48.000;7.840;2023-03-09T11:18:49;15.10;99.90
1225;DHT22;602;48.000;7.840;2023-03-09T11:21:30;15.30;99.90
1225;DHT22;602;48.000;7.840;2023-03-09T11:23:59;15.40;99.90
1225;DHT22;602;48.000;7.840;2023-03-09T11:26:43;15.40;99.90
1225;DHT22;602;48.000;7.840;2023-03-09T11:29:34;15.40;99.90
1225;DHT22;602;48.000;7.840;2023-03-09T11:32:02;15.60;99.90
1225;DHT22;602;48.000;7.840;2023-03-09T11:34:32;15.70;99.90
1225;DHT22;602;48.000;7.840;2023-03-09T11:37:07;15.70;99.90
1225;DHT22;602;48.000;7.840;2023-03-09T11:39:39;15.70;99.90
1225;DHT22;602;48.000;7.840;2023-03-09T11:42:13;15.90;99.90
1225;DHT22;602;48.000;7.840;2023-03-09T11:44:43;16.10;99.90
1225;DHT22;602;48.000;7.840;2023-03-09T11:47:25;16.30;99.90
1225;DHT22;602;48.000;7.840;2023-03-09T11:49:56;16.40;99.90
1225;DHT22;602;48.000;7.840;2023-03-09T11:52:29;16.60;99.90
1225;DHT22;602;48.000;7.840;2023-03-09T11:54:59;16.70;99.90
1225;DHT22;602;48.000;7.840;2023-03-09T11:57:30;17.00;99.90
1225;DHT22;602;48.000;7.840;2023-03-09T12:00:02;17.10;99.90
1225;DHT22;602;48.000;7.840;2023-03-09T12:02:35;17.30;99.90
1225;DHT22;602;48.000;7.840;2023-03-09T12:05:11;17.30;99.90
1225;DHT22;602;48.000;7.840;2023-03-09T12:07:46;17.20;99.90
1225;DHT22;602;48.000;7.840;2023-03-09T12:10:20;17.20;99.90
1225;DHT22;602;48.000;7.840;2023-03-09T12:12:55;17.30;99.90
1225;DHT22;602;48.000;7.840;2023-03-09T12:15:29;17.20;99.90
1225;DHT22;602;48.000;7.840;2023-03-09T12:17:59;17.40;99.90
1225;DHT22;602;48.000;7.840;2023-03-09T12:20:30;17.50;99.90
1225;DHT22;602;48.000;7.840;2023-03-09T12:22:58;17.50;99.90
1225;DHT22;602;48.000;7.840;2023-03-09T12:25:26;17.40;99.90
1225;DHT22;602;48.000;7.840;2023-03-09T12:27:56;17.40;99.90
1225;DHT22;602;48.000;7.840;2023-03-09T12:30:26;17.40;99.90
1225;DHT22;602;48.000;7.840;2023-03-09T12:32:56;17.30;99.90
1225;DHT22;602;48.000;7.840;2023-03-09T12:38:23;17.40;99.90
1225;DHT22;602;48.000;7.840;2023-03-09T12:40:52;17.20;99.90
1225;DHT22;602;48.000;7.840;2023-03-09T12:43:54;17.20;99.90
1225;DHT22;602;48.000;7.840;2023-03-09T12:47:00;17.10;99.90
1225;DHT22;602;48.000;7.840;2023-03-09T12:49:35;17.00;99.90
1225;DHT22;602;48.000;7.840;2023-03-09T12:52:32;16.90;99.90
1225;DHT22;602;48.000;7.840;2023-03-09T12:55:09;16.90;99.90
1225;DHT22;602;48.000;7.840;2023-03-09T12:57:37;16.90;99.90
1225;DHT22;602;48.000;7.840;2023-03-09T13:00:28;17.00;99.90
1225;DHT22;602;48.000;7.840;2023-03-09T13:02:59;17.30;99.90
1225;DHT22;602;48.000;7.840;2023-03-09T13:05:30;17.50;99.90
1225;DHT22;602;48.000;7.840;2023-03-09T13:08:03;17.60;99.90
1225;DHT22;602;48.000;7.840;2023-03-09T13:10:33;17.70;99.90
1225;DHT22;602;48.000;7.840;2023-03-09T13:13:38;17.60;99.90
1225;DHT22;602;48.000;7.840;2023-03-09T13:19:49;17.30;99.90
1225;DHT22;602;48.000;7.840;2023-03-09T13:28:02;17.50;99.90
1225;DHT22;602;48.000;7.840;2023-03-09T13:30:30;17.60;99.90
1225;DHT22;602;48.000;7.840;2023-03-09T13:33:03;17.70;99.90
1225;DHT22;602;48.000;7.840;2023-03-09T13:35:37;17.90;99.90
1225;DHT22;602;48.000;7.840;2023-03-09T13:38:14;18.10;99.90
1225;DHT22;602;48.000;7.840;2023-03-09T13:40:50;18.10;99.90
1225;DHT22;602;48.000;7.840;2023-03-09T13:43:19;18.10;99.90
1225;DHT22;602;48.000;7.840;2023-03-09T13:45:59;18.00;99.90
1225;DHT22;602;48.000;7.840;2023-03-09T13:48:29;18.00;99.90
1225;DHT22;602;48.000;7.840;2023-03-09T13:50:58;18.00;99.90
1225;DHT22;602;48.000;7.840;2023-03-09T13:53:27;18.00;99.90
1225;DHT22;602;48.000;7.840;2023-03-09T13:55:58;18.00;99.90
1225;DHT22;602;48.000;7.840;2023-03-09T13:58:26;18.00;99.90
1225;DHT22;602;48.000;7.840;2023-03-09T14:00:54;18.00;99.90
1225;DHT22;602;48.000;7.840;2023-03-09T14:03:24;17.90;99.90
1225;DHT22;602;48.000;7.840;2023-03-09T14:05:58;17.80;99.90
1225;DHT22;602;48.000;7.840;2023-03-09T14:08:27;17.70;99.90
1225;DHT22;602;48.000;7.840;2023-03-09T14:10:55;17.80;99.90
1225;DHT22;602;48.000;7.840;2023-03-09T14:13:24;17.70;99.90
1225;DHT22;602;48.000;7.840;2023-03-09T14:16:03;17.80;99.90
1225;DHT22;602;48.000;7.840;2023-03-09T14:18:37;17.80;99.90
1225;DHT22;602;48.000;7.840;2023-03-09T14:21:19;17.70;99.90
1225;DHT22;602;48.000;7.840;2023-03-09T14:23:47;17.70;99.90
1225;DHT22;602;48.000;7.840;2023-03-09T14:26:23;17.70;99.90
1225;DHT22;602;48.000;7.840;2023-03-09T14:29:21;17.50;99.90
1225;DHT22;602;48.000;7.840;2023-03-09T14:31:48;17.40;99.90
1225;DHT22;602;48.000;7.840;2023-03-09T14:34:26;17.40;99.90
1225;DHT22;602;48.000;7.840;2023-03-09T14:36:56;17.50;99.90
1225;DHT22;602;48.000;7.840;2023-03-09T14:39:27;17.60;99.90
1225;DHT22;602;48.000;7.840;2023-03-09T14:42:11;17.70;99.90
1225;DHT22;602;48.000;7.840;2023-03-09T14:44:42;17.60;99.90
1225;DHT22;602;48.000;7.840;2023-03-09T14:47:14;17.60;99.90
1225;DHT22;602;48.000;7.840;2023-03-09T14:49:41;17.50;99.90
1225;DHT22;602;48.000;7.840;2023-03-09T14:52:12;17.60;99.90
1225;DHT22;602;48.000;7.840;2023-03-09T14:54:38;17.50;99.90
1225;DHT22;602;48.000;7.840;2023-03-09T14:57:07;17.60;99.90
1225;DHT22;602;48.000;7.840;2023-03-09T14:59:35;17.50;99.90
1225;DHT22;602;48.000;7.840;2023-03-09T15:02:02;17.40;99.90
1225;DHT22;602;48.000;7.840;2023-03-09T15:04:30;17.40;99.90
1225;DHT22;602;48.000;7.840;2023-03-09T15:06:57;17.40;99.90
1225;DHT22;602;48.000;7.840;2023-03-09T15:09:26;17.40;99.90
1225;DHT22;602;48.000;7.840;2023-03-09T15:11:53;17.40;99.90
1225;DHT22;602;48.000;7.840;2023-03-09T15:14:25;17.40;99.90
1225;DHT22;602;48.000;7.840;2023-03-09T15:16:52;17.30;99.90
1225;DHT22;602;48.000;7.840;2023-03-09T15:19:20;17.20;99.90
1225;DHT22;602;48.000;7.840;2023-03-09T15:21:48;17.20;99.90
1225;DHT22;602;48.000;7.840;2023-03-09T15:24:18;17.20;99.90
1225;DHT22;602;48.000;7.840;2023-03-09T15:26:46;17.20;99.90
1225;DHT22;602;48.000;7.840;2023-03-09T15:29:13;17.20;99.90
1225;DHT22;602;48.000;7.840;2023-03-09T15:31:40;17.20;99.90
1225;DHT22;602;48.000;7.840;2023-03-09T15:34:06;17.10;99.90
1225;DHT22;602;48.000;7.840;2023-03-09T15:36:34;17.20;99.90
1225;DHT22;602;48.000;7.840;2023-03-09T15:39:00;17.30;99.90
1225;DHT22;602;48.000;7.840;2023-03-09T15:41:27;17.30;99.90
1225;DHT22;602;48.000;7.840;2023-03-09T15:43:55;17.30;99.90
1225;DHT22;602;48.000;7.840;2023-03-09T15:46:22;17.30;99.90
1225;DHT22;602;48.000;7.840;2023-03-09T15:48:50;17.30;99.90
1225;DHT22;602;48.000;7.840;2023-03-09T15:51:19;17.40;99.90
1225;DHT22;602;48.000;7.840;2023-03-09T15:53:46;17.40;99.90
1225;DHT22;602;48.000;7.840;2023-03-09T15:56:15;17.40;99.90
1225;DHT22;602;48.000;7.840;2023-03-09T15:58:44;17.40;99.90
1225;DHT22;602;48.000;7.840;2023-03-09T16:01:15;17.30;99.90
1225;DHT22;602;48.000;7.840;2023-03-09T16:03:46;17.20;99.90
1225;DHT22;602;48.000;7.840;2023-03-09T16:06:15;17.30;99.90
1225;DHT22;602;48.000;7.840;2023-03-09T16:08:42;17.30;99.90
1225;DHT22;602;48.000;7.840;2023-03-09T16:11:09;17.20;99.90
1225;DHT22;602;48.000;7.840;2023-03-09T16:13:36;17.20;99.90
1225;DHT22;602;48.000;7.840;2023-03-09T16:16:05;17.10;99.90
1225;DHT22;602;48.000;7.840;2023-03-09T16:18:35;17.10;99.90
1225;DHT22;602;48.000;7.840;2023-03-09T16:21:01;17.20;99.90
1225;DHT22;602;48.000;7.840;2023-03-09T16:23:28;17.20;99.90
1225;DHT22;602;48.000;7.840;2023-03-09T16:25:56;17.20;99.90
1225;DHT22;602;48.000;7.840;2023-03-09T16:28:25;17.20;99.90
1225;DHT22;602;48.000;7.840;2023-03-09T16:30:52;17.20;99.90
1225;DHT22;602;48.000;7.840;2023-03-09T16:33:19;17.20;99.90
1225;DHT22;602;48.000;7.840;2023-03-09T16:35:55;17.20;99.90
1225;DHT22;602;48.000;7.840;2023-03-09T16:38:23;17.20;99.90
1225;DHT22;602;48.000;7.840;2023-03-09T16:40:49;17.20;99.90
1225;DHT22;602;48.000;7.840;2023-03-09T16:43:16;17.10;99.90
1225;DHT22;602;48.000;7.840;2023-03-09T16:45:50;17.10;99.90
1225;DHT22;602;48.000;7.840;2023-03-09T16:48:18;17.10;99.90
1225;DHT22;602;48.000;7.840;2023-03-09T16:50:45;17.00;99.90
1225;DHT22;602;48.000;7.840;2023-03-09T16:53:13;16.90;99.90
1225;DHT22;602;48.000;7.840;2023-03-09T16:55:40;16.90;99.90
1225;DHT22;602;48.000;7.840;2023-03-09T16:58:07;16.80;99.90
1225;DHT22;602;48.000;7.840;2023-03-09T17:00:34;16.80;99.90
1225;DHT22;602;48.000;7.840;2023-03-09T17:03:01;16.80;99.90
1225;DHT22;602;48.000;7.840;2023-03-09T17:05:28;16.80;99.90
1225;DHT22;602;48.000;7.840;2023-03-09T17:07:55;16.70;99.90
1225;DHT22;602;48.000;7.840;2023-03-09T17:10:24;16.70;99.90
1225;DHT22;602;48.000;7.840;2023-03-09T17:12:51;16.80;99.90
1225;DHT22;602;48.000;7.840;2023-03-09T17:15:19;16.70;99.90
1225;DHT22;602;48.000;7.840;2023-03-09T17:17:45;16.70;99.90
1225;DHT22;602;48.000;7.840;2023-03-09T17:20:12;16.70;99.90
1225;DHT22;602;48.000;7.840;2023-03-09T17:22:40;16.70;99.90
1225;DHT22;602;48.000;7.840;2023-03-09T17:25:14;16.60;99.90
1225;DHT22;602;48.000;7.840;2023-03-09T17:27:43;16.50;99.90
1225;DHT22;602;48.000;7.840;2023-03-09T17:30:11;16.50;99.90
1225;DHT22;602;48.000;7.840;2023-03-09T17:32:38;16.50;99.90
1225;DHT22;602;48.000;7.840;2023-03-09T17:35:05;16.60;99.90
1225;DHT22;602;48.000;7.840;2023-03-09T17:37:33;16.50;99.90
1225;DHT22;602;48.000;7.840;2023-03-09T17:40:01;16.40;99.90
1225;DHT22;602;48.000;7.840;2023-03-09T17:42:27;16.30;99.90
1225;DHT22;602;48.000;7.840;2023-03-09T17:44:56;16.30;99.90
1225;DHT22;602;48.000;7.840;2023-03-09T17:47:23;16.30;99.90
1225;DHT22;602;48.000;7.840;2023-03-09T17:49:49;16.30;99.90
1225;DHT22;602;48.000;7.840;2023-03-09T17:52:17;16.30;99.90
1225;DHT22;602;48.000;7.840;2023-03-09T17:54:44;16.20;99.90
1225;DHT22;602;48.000;7.840;2023-03-09T17:57:10;16.20;99.90
1225;DHT22;602;48.000;7.840;2023-03-09T17:59:37;16.10;99.90
1225;DHT22;602;48.000;7.840;2023-03-09T18:02:06;16.10;99.90
1225;DHT22;602;48.000;7.840;2023-03-09T18:04:33;16.10;99.90
1225;DHT22;602;48.000;7.840;2023-03-09T18:07:00;16.00;99.90
1225;DHT22;602;48.000;7.840;2023-03-09T18:09:27;16.00;99.90
1225;DHT22;602;48.000;7.840;2023-03-09T18:11:54;16.00;99.90
1225;DHT22;602;48.000;7.840;2023-03-09T18:14:21;15.90;99.90
1225;DHT22;602;48.000;7.840;2023-03-09T18:16:48;16.00;99.90
1225;DHT22;602;48.000;7.840;2023-03-09T18:19:16;16.00;99.90
1225;DHT22;602;48.000;7.840;2023-03-09T18:21:43;15.90;99.90
1225;DHT22;602;48.000;7.840;2023-03-09T18:24:10;15.90;99.90
1225;DHT22;602;48.000;7.840;2023-03-09T18:26:37;15.90;99.90
1225;DHT22;602;48.000;7.840;2023-03-09T18:29:04;15.80;99.90
1225;DHT22;602;48.000;7.840;2023-03-09T18:31:32;15.70;99.90
1225;DHT22;602;48.000;7.840;2023-03-09T18:34:00;15.70;99.90
1225;DHT22;602;48.000;7.840;2023-03-09T18:36:28;15.90;99.90
1225;DHT22;602;48.000;7.840;2023-03-09T18:38:55;15.90;99.90
1225;DHT22;602;48.000;7.840;2023-03-09T18:41:22;15.80;99.90
1225;DHT22;602;48.000;7.840;2023-03-09T18:43:49;15.90;99.90
1225;DHT22;602;48.000;7.840;2023-03-09T18:46:16;15.80;99.90
1225;DHT22;602;48.000;7.840;2023-03-09T18:48:43;15.90;99.90
1225;DHT22;602;48.000;7.840;2023-03-09T18:51:10;15.90;99.90
1225;DHT22;602;48.000;7.840;2023-03-09T18:53:40;15.90;99.90
1225;DHT22;602;48.000;7.840;2023-03-09T18:56:10;15.80;99.90
1225;DHT22;602;48.000;7.840;2023-03-09T18:58:39;15.80;99.90
1225;DHT22;602;48.000;7.840;2023-03-09T19:01:07;15.80;99.90
1225;DHT22;602;48.000;7.840;2023-03-09T19:03:34;15.80;99.90
1225;DHT22;602;48.000;7.840;2023-03-09T19:06:03;15.80;99.90
1225;DHT22;602;48.000;7.840;2023-03-09T19:08:30;15.70;99.90
1225;DHT22;602;48.000;7.840;2023-03-09T19:10:59;15.70;99.90